Time,TemperatureF,DewpointF,PressureIn,WindDirection,WindDirectionDegrees,WindSpeedMPH,WindSpeedGustMPH,Humidity,HourlyPrecipIn,Conditions,Clouds,dailyrainin,SoftwareType,DateUTC
2013-07-15 00:02:00,59.0,-99.9,-100.00,South,173,3.0,6.0,-999,0.00,,,-99.99,,2013-07-15 06:02:00,
2013-07-15 00:12:00,59.0,-99.9,-100.00,South,170,1.0,4.0,-999,0.00,,,-99.99,,2013-07-15 06:12:00,
2013-07-15 00:22:00,58.0,-99.9,-100.00,North,0,0.0,0.0,-999,0.00,,,-99.99,,2013-07-15 06:22:00,
2013-07-15 00:32:00,58.0,-99.9,-100.00,SSE,167,1.0,4.0,-999,0.00,,,-99.99,,2013-07-15 06:32:00,
2013-07-15 00:42:00,58.0,-99.9,-100.00,North,0,0.0,0.0,-999,0.00,,,-99.99,,2013-07-15 06:42:00,
2013-07-15 00:53:00,58.0,-99.9,-100.00,North,0,0.0,0.0,-999,0.00,,,-99.99,,2013-07-15 06:53:00,
2013-07-15 01:02:00,58.0,-99.9,-100.00,North,0,0.0,0.0,-999,0.00,,,-99.99,,2013-07-15 07:02:00,
2013-07-15 01:11:00,58.0,-99.9,-100.00,South,174,1.0,3.0,-999,0.00,,,-99.99,,2013-07-15 07:11:00,
2013-07-15 01:22:00,58.0,-99.9,-100.00,North,0,0.0,0.0,-999,0.00,,,-99.99,,2013-07-15 07:22:00,
2013-07-15 01:33:00,58.0,-99.9,-100.00,North,0,0.0,0.0,-999,0.00,,,-99.99,,2013-07-15 07:33:00,
2013-07-15 01:44:00,58.0,-99.9,-100.00,North,0,0.0,0.0,-999,0.00,,,-99.99,,2013-07-15 07:44:00,
2013-07-15 01:53:00,59.0,-99.9,-100.00,ESE,121,0.0,3.0,-999,0.00,,,-99.99,,2013-07-15 07:53:00,
2013-07-15 02:02:00,60.0,-99.9,-100.00,North,0,0.0,0.0,-999,0.00,,,-99.99,,2013-07-15 08:02:00,
2013-07-15 02:12:00,60.0,-99.9,-100.00,North,0,0.0,0.0,-999,0.00,,,-99.99,,2013-07-15 08:12:00,
2013-07-15 02:22:00,59.0,-99.9,-100.00,North,0,0.0,0.0,-999,0.00,,,-99.99,,2013-07-15 08:22:00,
2013-07-15 02:32:00,60.0,-99.9,-100.00,SSE,167,0.0,3.0,-999,0.00,,,-99.99,,2013-07-15 08:32:00,
2013-07-15 02:44:00,60.0,-99.9,-100.00,North,0,0.0,0.0,-999,0.00,,,-99.99,,2013-07-15 08:44:00,
2013-07-15 02:53:00,60.0,-99.9,-100.00,North,0,0.0,0.0,-999,0.00,,,-99.99,,2013-07-15 08:53:00,
2013-07-15 03:02:00,59.0,-99.9,-100.00,North,0,0.0,0.0,-999,0.00,,,-99.99,,2013-07-15 09:02:00,
2013-07-15 03:12:00,59.0,-99.9,-100.00,SSE,167,0.0,1.0,-999,0.00,,,-99.99,,2013-07-15 09:12:00,
2013-07-15 03:22:00,60.0,-99.9,-100.00,North,0,0.0,0.0,-999,0.00,,,-99.99,,2013-07-15 09:22:00,
2013-07-15 03:32:00,59.0,-99.9,-100.00,North,0,0.0,0.0,-999,0.00,,,-99.99,,2013-07-15 09:32:00,
2013-07-15 03:43:00,60.0,-99.9,-100.00,South,190,1.0,3.0,-999,0.00,,,-99.99,,2013-07-15 09:43:00,
2013-07-15 03:53:00,60.0,-99.9,-100.00,North,0,0.0,0.0,-999,0.00,,,-99.99,,2013-07-15 09:53:00,
2013-07-15 04:02:00,60.0,-99.9,-100.00,SSW,195,0.0,3.0,-999,0.00,,,-99.99,,2013-07-15 10:02:00,
2013-07-15 04:11:00,61.0,-99.9,-100.00,South,172,2.0,5.0,-999,0.00,,,-99.99,,2013-07-15 10:11:00,
2013-07-15 04:22:00,61.0,-99.9,-100.00,North,0,0.0,0.0,-999,0.00,,,-99.99,,2013-07-15 10:22:00,
2013-07-15 04:32:00,60.0,-99.9,-100.00,North,0,0.0,0.0,-999,0.00,,,-99.99,,2013-07-15 10:32:00,
2013-07-15 04:43:00,61.0,-99.9,-100.00,SE,146,1.0,3.0,-999,0.00,,,-99.99,,2013-07-15 10:43:00,
2013-07-15 04:53:00,61.0,-99.9,-100.00,SE,146,0.0,2.0,-999,0.00,,,-99.99,,2013-07-15 10:53:00,
2013-07-15 05:02:00,61.0,-99.9,-100.00,North,0,0.0,0.0,-999,0.00,,,-99.99,,2013-07-15 11:02:00,
2013-07-15 05:11:00,61.0,-99.9,-100.00,North,0,0.0,0.0,-999,0.00,,,-99.99,,2013-07-15 11:11:00,
2013-07-15 05:22:00,60.0,-99.9,-100.00,North,0,0.0,0.0,-999,0.00,,,-99.99,,2013-07-15 11:22:00,
2013-07-15 05:32:00,60.0,-99.9,-100.00,North,0,0.0,0.0,-999,0.00,,,-99.99,,2013-07-15 11:32:00,
2013-07-15 05:43:00,60.0,-99.9,-100.00,North,0,0.0,0.0,-999,0.00,,,-99.99,,2013-07-15 11:43:00,
2013-07-15 05:52:00,60.0,-99.9,-100.00,North,0,0.0,0.0,-999,0.00,,,-99.99,,2013-07-15 11:52:00,
2013-07-15 06:01:00,60.0,-99.9,-100.00,North,0,0.0,0.0,-999,0.00,,,-99.99,,2013-07-15 12:01:00,
2013-07-15 06:11:00,61.0,-99.9,-100.00,North,0,0.0,0.0,-999,0.00,,,-99.99,,2013-07-15 12:11:00,
2013-07-15 06:22:00,61.0,-99.9,-100.00,SSW,203,3.0,5.0,-999,0.00,,,-99.99,,2013-07-15 12:22:00,
2013-07-15 06:33:00,62.0,-99.9,-100.00,North,0,0.0,0.0,-999,0.00,,,-99.99,,2013-07-15 12:33:00,
2013-07-15 06:43:00,63.0,-99.9,-100.00,SW,215,4.0,5.0,-999,0.00,,,-99.99,,2013-07-15 12:43:00,
2013-07-15 06:53:00,63.0,-99.9,-100.00,SW,226,5.0,7.0,-999,0.00,,,-99.99,,2013-07-15 12:53:00,
2013-07-15 07:02:00,64.0,-99.9,-100.00,SSW,200,5.0,7.0,-999,0.00,,,-99.99,,2013-07-15 13:02:00,
2013-07-15 07:11:00,64.0,-99.9,-100.00,South,173,0.0,3.0,-999,0.00,,,-99.99,,2013-07-15 13:11:00,
2013-07-15 07:22:00,65.0,-99.9,-100.00,SSW,201,3.0,5.0,-999,0.00,,,-99.99,,2013-07-15 13:22:00,
2013-07-15 07:33:00,65.0,-99.9,-100.00,SSW,200,5.0,6.0,-999,0.00,,,-99.99,,2013-07-15 13:33:00,
2013-07-15 07:43:00,66.0,-99.9,-100.00,SSW,205,5.0,6.0,-999,0.00,,,-99.99,,2013-07-15 13:43:00,
2013-07-15 07:53:00,67.0,-99.9,-100.00,South,187,5.0,6.0,-999,0.00,,,-99.99,,2013-07-15 13:53:00,
2013-07-15 08:02:00,67.0,-99.9,-100.00,WSW,242,5.0,6.0,-999,0.00,,,-99.99,,2013-07-15 14:02:00,
2013-07-15 08:11:00,68.0,-99.9,-100.00,South,184,5.0,7.0,-999,0.00,,,-99.99,,2013-07-15 14:11:00,
2013-07-15 08:22:00,68.0,-99.9,-100.00,SW,221,5.0,6.0,-999,0.00,,,-99.99,,2013-07-15 14:22:00,
2013-07-15 08:33:00,69.0,-99.9,-100.00,SW,219,4.0,6.0,-999,0.00,,,-99.99,,2013-07-15 14:33:00,
2013-07-15 08:43:00,70.0,-99.9,-100.00,SSW,201,5.0,6.0,-999,0.00,,,-99.99,,2013-07-15 14:43:00,
2013-07-15 09:03:00,71.0,-99.9,-100.00,SSW,203,3.0,5.0,-999,0.00,,,-99.99,,2013-07-15 15:03:00,
2013-07-15 09:19:00,72.0,-99.9,-100.00,SSW,211,3.0,6.0,-999,0.00,,,-99.99,,2013-07-15 15:19:00,
2013-07-15 09:30:00,73.0,-99.9,-100.00,SSW,203,5.0,6.0,-999,0.00,,,-99.99,,2013-07-15 15:30:00,
2013-07-15 09:42:00,74.0,-99.9,-100.00,SW,231,3.0,6.0,-999,0.00,,,-99.99,,2013-07-15 15:42:00,
2013-07-15 09:54:00,76.0,-99.9,-100.00,SW,221,5.0,6.0,-999,0.00,,,-99.99,,2013-07-15 15:54:00,
2013-07-15 10:08:00,77.0,-99.9,-100.00,SW,224,5.0,7.0,-999,0.00,,,-99.99,,2013-07-15 16:08:00,
2013-07-15 10:15:00,78.0,-99.9,-100.00,South,190,6.0,7.0,-999,0.00,,,-99.99,,2013-07-15 16:15:00,
2013-07-15 10:33:00,80.0,-99.9,-100.00,SW,233,6.0,7.0,-999,0.00,,,-99.99,,2013-07-15 16:33:00,
2013-07-15 10:51:00,80.0,-99.9,-100.00,SSW,197,6.0,7.0,-999,0.00,,,-99.99,,2013-07-15 16:51:00,
2013-07-15 11:13:00,81.0,-99.9,-100.00,SSW,207,6.0,8.0,-999,0.00,,,-99.99,,2013-07-15 17:13:00,
2013-07-15 11:23:00,80.0,-99.9,-100.00,SW,229,6.0,7.0,-999,0.00,,,-99.99,,2013-07-15 17:23:00,
2013-07-15 11:37:00,80.0,-99.9,-100.00,SW,214,6.0,7.0,-999,0.00,,,-99.99,,2013-07-15 17:37:00,
2013-07-15 12:01:00,84.0,-99.9,-100.00,SW,214,7.0,8.0,-999,0.00,,,-99.99,,2013-07-15 18:01:00,
2013-07-15 12:19:00,85.0,-99.9,-100.00,South,179,6.0,7.0,-999,0.00,,,-99.99,,2013-07-15 18:19:00,
2013-07-15 12:41:00,83.0,-99.9,-100.00,SW,219,6.0,7.0,-999,0.00,,,-99.99,,2013-07-15 18:41:00,
2013-07-15 12:59:00,83.0,-99.9,-100.00,SW,218,6.0,8.0,-999,0.00,,,-99.99,,2013-07-15 18:59:00,
2013-07-15 13:05:00,83.0,-99.9,-100.00,SW,214,6.0,8.0,-999,0.00,,,-99.99,,2013-07-15 19:05:00,
2013-07-15 13:12:00,81.0,-99.9,-100.00,WSW,245,5.0,7.0,-999,0.00,,,-99.99,,2013-07-15 19:12:00,
2013-07-15 13:24:00,80.0,-99.9,-100.00,SW,214,5.0,6.0,-999,0.00,,,-99.99,,2013-07-15 19:24:00,
2013-07-15 13:50:00,81.0,-99.9,-100.00,SSW,203,6.0,8.0,-999,0.00,,,-99.99,,2013-07-15 19:50:00,
2013-07-15 13:57:00,83.0,-99.9,-100.00,SW,229,6.0,7.0,-999,0.00,,,-99.99,,2013-07-15 19:57:00,
2013-07-15 14:07:00,84.0,-99.9,-100.00,SW,222,6.0,7.0,-999,0.00,,,-99.99,,2013-07-15 20:07:00,
2013-07-15 14:19:00,85.0,-99.9,-100.00,SW,217,6.0,8.0,-999,0.00,,,-99.99,,2013-07-15 20:19:00,
2013-07-15 14:29:00,84.0,-99.9,-100.00,South,190,5.0,7.0,-999,0.00,,,-99.99,,2013-07-15 20:29:00,
2013-07-15 14:37:00,84.0,-99.9,-100.00,SW,224,6.0,7.0,-999,0.00,,,-99.99,,2013-07-15 20:37:00,
2013-07-15 14:43:00,83.0,-99.9,-100.00,SSW,210,6.0,7.0,-999,0.00,,,-99.99,,2013-07-15 20:43:00,
2013-07-15 15:00:00,85.0,-99.9,-100.00,SW,217,4.0,5.0,-999,0.00,,,-99.99,,2013-07-15 21:00:00,
2013-07-15 15:13:00,86.0,-99.9,-100.00,SSW,205,5.0,7.0,-999,0.00,,,-99.99,,2013-07-15 21:13:00,
2013-07-15 15:24:00,90.0,-99.9,-100.00,SSW,201,4.0,5.0,-999,0.00,,,-99.99,,2013-07-15 21:24:00,
2013-07-15 15:41:00,90.0,-99.9,-100.00,SSW,212,5.0,7.0,-999,0.00,,,-99.99,,2013-07-15 21:41:00,
2013-07-15 15:48:00,90.0,-99.9,-100.00,WSW,238,1.0,6.0,-999,0.00,,,-99.99,,2013-07-15 21:48:00,
2013-07-15 16:02:00,90.0,-99.9,-100.00,SW,224,6.0,7.0,-999,0.00,,,-99.99,,2013-07-15 22:02:00,
2013-07-15 16:20:00,91.0,-99.9,-100.00,SSW,205,5.0,9.0,-999,0.00,,,-99.99,,2013-07-15 22:20:00,
2013-07-15 16:36:00,91.0,-99.9,-100.00,SSW,207,6.0,8.0,-999,0.00,,,-99.99,,2013-07-15 22:36:00,
2013-07-15 16:44:00,92.0,-99.9,-100.00,SSW,210,5.0,7.0,-999,0.00,,,-99.99,,2013-07-15 22:44:00,
2013-07-15 16:55:00,92.0,-99.9,-100.00,SW,232,5.0,7.0,-999,0.00,,,-99.99,,2013-07-15 22:55:00,
2013-07-15 17:08:00,92.0,-99.9,-100.00,SW,225,5.0,7.0,-999,0.00,,,-99.99,,2013-07-15 23:08:00,
2013-07-15 17:13:00,92.0,-99.9,-100.00,WSW,240,6.0,7.0,-999,0.00,,,-99.99,,2013-07-15 23:13:00,
2013-07-15 17:31:00,95.0,-99.9,-100.00,SW,231,1.0,3.0,-999,0.00,,,-99.99,,2013-07-15 23:31:00,
2013-07-15 17:40:00,95.0,-99.9,-100.00,North,0,0.0,0.0,-999,0.00,,,-99.99,,2013-07-15 23:40:00,
2013-07-15 17:50:00,97.0,-99.9,-100.00,SW,221,0.0,3.0,-999,0.00,,,-99.99,,2013-07-15 23:50:00,
2013-07-15 18:03:00,97.0,-99.9,-100.00,North,0,0.0,0.0,-999,0.00,,,-99.99,,2013-07-16 00:03:00,
2013-07-15 18:16:00,97.0,-99.9,-100.00,North,0,0.0,0.0,-999,0.00,,,-99.99,,2013-07-16 00:16:00,
2013-07-15 18:34:00,97.0,-99.9,-100.00,North,0,0.0,0.0,-999,0.00,,,-99.99,,2013-07-16 00:34:00,
2013-07-15 19:39:00,95.0,-99.9,-100.00,North,0,0.0,0.0,-999,0.00,,,-99.99,,2013-07-16 01:39:00,
2013-07-15 19:49:00,96.0,-99.9,-100.00,North,0,0.0,0.0,-999,0.00,,,-99.99,,2013-07-16 01:49:00,
2013-07-15 20:02:00,96.0,-99.9,-100.00,North,0,0.0,0.0,-999,0.00,,,-99.99,,2013-07-16 02:02:00,
2013-07-15 20:35:00,94.0,-99.9,-100.00,North,0,0.0,0.0,-999,0.00,,,-99.99,,2013-07-16 02:35:00,
2013-07-15 20:53:00,90.0,-99.9,-100.00,North,0,0.0,0.0,-999,0.00,,,-99.99,,2013-07-16 02:53:00,
2013-07-15 21:17:00,82.0,-99.9,-100.00,North,0,0.0,0.0,-999,0.00,,,-99.99,,2013-07-16 03:17:00,
2013-07-15 21:29:00,82.0,-99.9,-100.00,North,0,0.0,0.0,-999,0.00,,,-99.99,,2013-07-16 03:29:00,
2013-07-15 21:42:00,81.0,-99.9,-100.00,North,0,0.0,0.0,-999,0.00,,,-99.99,,2013-07-16 03:42:00,
2013-07-15 21:49:00,80.0,-99.9,-100.00,North,0,0.0,0.0,-999,0.00,,,-99.99,,2013-07-16 03:49:00,
2013-07-15 21:58:00,80.0,-99.9,-100.00,North,0,0.0,0.0,-999,0.00,,,-99.99,,2013-07-16 03:58:00,
2013-07-15 22:02:00,80.0,-99.9,-100.00,North,0,0.0,0.0,-999,0.00,,,-99.99,,2013-07-16 04:02:00,
2013-07-15 22:12:00,80.0,-99.9,-100.00,North,0,0.0,0.0,-999,0.00,,,-99.99,,2013-07-16 04:12:00,
2013-07-15 22:22:00,79.0,-99.9,-100.00,North,0,0.0,0.0,-999,0.00,,,-99.99,,2013-07-16 04:22:00,
2013-07-15 22:32:00,75.0,-99.9,-100.00,North,0,0.0,0.0,-999,0.00,,,-99.99,,2013-07-16 04:32:00,
2013-07-15 22:43:00,77.0,-99.9,-100.00,North,0,0.0,0.0,-999,0.00,,,-99.99,,2013-07-16 04:43:00,
2013-07-15 22:53:00,77.0,-99.9,-100.00,North,0,0.0,0.0,-999,0.00,,,-99.99,,2013-07-16 04:53:00,
2013-07-15 23:01:00,78.0,-99.9,-100.00,North,0,0.0,0.0,-999,0.00,,,-99.99,,2013-07-16 05:01:00,
2013-07-15 23:11:00,77.0,-99.9,-100.00,North,0,0.0,0.0,-999,0.00,,,-99.99,,2013-07-16 05:11:00,
2013-07-15 23:22:00,77.0,-99.9,-100.00,North,0,0.0,0.0,-999,0.00,,,-99.99,,2013-07-16 05:22:00,
2013-07-15 23:32:00,76.0,-99.9,-100.00,North,0,0.0,0.0,-999,0.00,,,-99.99,,2013-07-16 05:32:00,
2013-07-15 23:43:00,77.0,-99.9,-100.00,North,0,0.0,0.0,-999,0.00,,,-99.99,,2013-07-16 05:43:00,
2013-07-15 23:52:00,77.0,-99.9,-100.00,North,0,0.0,0.0,-999,0.00,,,-99.99,,2013-07-16 05:52:00,